createdAt,value
2023-03-24T00:00:14.231Z,12.53
2023-03-24T00:03:17.977Z,12.58
2023-03-24T00:06:22.823Z,12.60
2023-03-24T00:09:25.436Z,12.64
2023-03-24T00:12:27.741Z,12.68
2023-03-24T00:15:30.654Z,12.68
2023-03-24T00:18:33.189Z,12.70
2023-03-24T00:21:37.324Z,12.75
2023-03-24T00:24:41.024Z,12.80
2023-03-24T00:27:45.073Z,12.79
2023-03-24T00:30:53.125Z,12.86
2023-03-24T00:33:55.670Z,12.70
2023-03-24T00:36:58.056Z,12.78
2023-03-24T00:40:00.462Z,12.76
2023-03-24T00:43:03.899Z,12.90
2023-03-24T00:46:08.653Z,12.90
2023-03-24T00:49:12.490Z,12.90
2023-03-24T00:52:20.804Z,13.02
2023-03-24T00:55:23.525Z,13.00
2023-03-24T00:58:26.335Z,13.00
2023-03-24T01:01:33.456Z,13.09
2023-03-24T01:04:36.236Z,13.08
2023-03-24T01:07:42.470Z,13.01
2023-03-24T01:10:50.563Z,12.97
2023-03-24T01:13:54.703Z,13.02
2023-03-24T01:16:57.298Z,13.09
2023-03-24T01:19:59.648Z,13.01
2023-03-24T01:23:05.238Z,13.12
2023-03-24T01:26:09.304Z,12.97
2023-03-24T01:29:11.741Z,12.98
2023-03-24T01:32:14.339Z,12.89
2023-03-24T01:35:17.221Z,13.06
2023-03-24T01:38:20.024Z,13.01
2023-03-24T01:41:22.381Z,13.01
2023-03-24T01:44:27.782Z,12.93
2023-03-24T01:47:30.145Z,12.89
2023-03-24T01:50:32.736Z,12.83
2023-03-24T01:53:38.079Z,12.82
2023-03-24T01:56:44.172Z,12.82
2023-03-24T01:59:49.232Z,12.85
2023-03-24T02:03:14.896Z,12.86
2023-03-24T02:06:27.278Z,12.83
2023-03-24T02:09:31.931Z,12.83
2023-03-24T02:12:34.337Z,12.93
2023-03-24T02:15:56.090Z,12.79
2023-03-24T02:19:17.245Z,12.84
2023-03-24T02:22:47.462Z,12.80
2023-03-24T02:26:20.818Z,12.83
2023-03-24T02:29:48.049Z,12.83
2023-03-24T02:33:03.419Z,12.86
2023-03-24T02:36:39.488Z,12.75
2023-03-24T02:40:05.009Z,12.81
2023-03-24T02:43:17.601Z,12.82
2023-03-24T02:46:27.729Z,12.85
2023-03-24T02:49:39.833Z,12.82
2023-03-24T02:53:00.961Z,12.78
2023-03-24T02:56:13.270Z,12.72
2023-03-24T02:59:46.515Z,12.62
2023-03-24T03:03:10.338Z,12.58
2023-03-24T03:06:24.517Z,12.53
2023-03-24T03:09:28.220Z,12.52
2023-03-24T03:12:33.743Z,12.53
2023-03-24T03:15:40.178Z,12.50
2023-03-24T03:18:51.717Z,12.41
2023-03-24T03:21:54.736Z,12.46
2023-03-24T03:24:57.904Z,12.47
2023-03-24T03:28:02.397Z,12.51
2023-03-24T03:31:08.940Z,12.60
2023-03-24T03:34:16.346Z,12.66
2023-03-24T03:37:36.856Z,12.69
2023-03-24T03:40:43.407Z,12.65
2023-03-24T03:43:53.388Z,12.73
2023-03-24T03:46:56.021Z,12.80
2023-03-24T03:50:08.992Z,12.66
2023-03-24T03:53:13.920Z,12.66
2023-03-24T03:56:19.567Z,12.58
2023-03-24T03:59:34.702Z,12.60
2023-03-24T04:02:51.019Z,12.51
2023-03-24T04:06:05.466Z,12.30
2023-03-24T04:09:30.077Z,12.32
2023-03-24T04:13:15.873Z,12.27
2023-03-24T04:16:48.252Z,12.27
2023-03-24T04:20:21.355Z,12.32
2023-03-24T04:24:03.517Z,13.01
2023-03-24T04:27:40.083Z,13.38
2023-03-24T04:30:56.233Z,13.34
2023-03-24T04:34:16.530Z,13.51
2023-03-24T04:37:28.728Z,13.47
2023-03-24T04:40:36.839Z,13.72
2023-03-24T04:43:39.432Z,13.78
2023-03-24T04:46:44.777Z,13.63
2023-03-24T04:49:52.044Z,13.32
2023-03-24T04:52:55.000Z,13.01
2023-03-24T04:56:07.899Z,12.88
2023-03-24T04:59:28.680Z,12.70
2023-03-24T05:02:31.881Z,12.59
2023-03-24T05:05:50.931Z,12.53
2023-03-24T05:08:53.414Z,12.36
2023-03-24T05:11:55.909Z,12.35
2023-03-24T05:14:59.027Z,12.36
2023-03-24T05:18:01.653Z,12.36
2023-03-24T05:21:04.146Z,12.33
2023-03-24T05:24:06.932Z,12.48
2023-03-24T05:27:11.086Z,12.53
2023-03-24T05:30:14.377Z,12.59
2023-03-24T05:33:17.853Z,12.53
2023-03-24T05:36:20.265Z,12.63
2023-03-24T05:39:29.810Z,12.61
2023-03-24T05:42:43.356Z,12.78
2023-03-24T05:45:47.198Z,12.91
2023-03-24T05:48:59.424Z,12.99
2023-03-24T05:52:19.332Z,13.10
2023-03-24T05:55:23.298Z,13.26
2023-03-24T05:58:34.694Z,13.42
2023-03-24T06:10:36.959Z,14.44
2023-03-24T06:13:40.322Z,14.88
2023-03-24T06:16:42.821Z,14.90
2023-03-24T06:19:51.428Z,15.24
2023-03-24T06:23:12.683Z,15.54
2023-03-24T06:26:33.519Z,15.83
2023-03-24T06:29:38.559Z,16.01
2023-03-24T06:32:42.203Z,15.92
2023-03-24T06:35:44.779Z,16.02
2023-03-24T06:38:51.397Z,16.40
2023-03-24T06:41:56.190Z,16.07
2023-03-24T06:44:58.562Z,16.19
2023-03-24T06:48:01.152Z,16.32
2023-03-24T06:51:03.785Z,16.57
2023-03-24T06:54:06.824Z,16.74
2023-03-24T06:57:09.293Z,17.06
2023-03-24T07:00:45.251Z,17.50
2023-03-24T07:04:13.446Z,17.64
2023-03-24T07:11:03.938Z,18.39
2023-03-24T07:14:08.746Z,18.56
2023-03-24T07:17:11.959Z,18.95
2023-03-24T07:20:26.805Z,19.16
2023-03-24T07:23:50.737Z,19.17
2023-03-24T07:26:56.418Z,19.83
2023-03-24T07:30:00.705Z,19.90
2023-03-24T07:33:13.430Z,20.40
2023-03-24T07:36:19.031Z,20.52
2023-03-24T07:39:22.327Z,20.41
2023-03-24T07:42:25.620Z,20.42
2023-03-24T07:45:52.371Z,20.59
2023-03-24T07:48:54.940Z,20.59
2023-03-24T07:51:59.235Z,20.82
2023-03-24T07:55:12.129Z,20.77
2023-03-24T07:58:34.649Z,20.94
2023-03-24T08:01:52.590Z,21.28
2023-03-24T08:05:08.073Z,21.41
2023-03-24T08:08:42.614Z,21.29
2023-03-24T08:11:46.361Z,21.81
2023-03-24T08:14:48.717Z,21.79
2023-03-24T08:17:52.273Z,22.14
2023-03-24T08:20:57.457Z,22.03
2023-03-24T08:23:59.950Z,21.87
2023-03-24T08:27:06.329Z,21.70
2023-03-24T08:30:10.669Z,21.94
2023-03-24T08:33:14.504Z,21.98
2023-03-24T08:36:16.898Z,22.16
2023-03-24T08:39:20.341Z,21.62
2023-03-24T08:42:22.600Z,21.76
2023-03-24T08:45:27.591Z,21.72
2023-03-24T08:48:30.631Z,21.96
2023-03-24T08:51:33.110Z,22.24
2023-03-24T08:54:36.656Z,22.50
2023-03-24T08:57:38.971Z,22.46
2023-03-24T09:00:41.625Z,22.41
2023-03-24T09:03:44.996Z,22.27
2023-03-24T09:06:47.313Z,21.83
2023-03-24T09:09:50.147Z,21.91
2023-03-24T09:12:52.763Z,22.17
2023-03-24T09:15:59.280Z,22.19
2023-03-24T09:19:01.886Z,21.75
2023-03-24T09:22:04.210Z,21.47
2023-03-24T09:25:07.218Z,22.10
2023-03-24T09:28:09.573Z,22.10
2023-03-24T09:31:13.147Z,21.87
2023-03-24T09:34:15.783Z,22.17
2023-03-24T09:37:18.144Z,22.42
2023-03-24T09:40:27.052Z,22.84
2023-03-24T09:43:38.810Z,22.69
2023-03-24T09:47:25.987Z,22.75
2023-03-24T09:50:35.138Z,23.11
2023-03-24T09:53:38.106Z,23.02
2023-03-24T09:57:55.612Z,23.26
2023-03-24T10:01:11.033Z,23.37
2023-03-24T10:43:46.579Z,22.87
2023-03-24T10:46:52.830Z,22.25
2023-03-24T10:50:00.880Z,22.14
2023-03-24T10:53:20.486Z,22.13
2023-03-24T10:56:43.371Z,22.52
2023-03-24T10:59:51.617Z,22.92
2023-03-24T11:03:01.045Z,23.48
2023-03-24T11:06:07.030Z,23.91
2023-03-24T11:09:21.311Z,23.72
2023-03-24T11:12:29.256Z,23.55
2023-03-24T11:15:33.494Z,23.54
2023-03-24T11:18:38.606Z,23.73
2023-03-24T11:21:42.924Z,23.88
2023-03-24T11:24:50.406Z,24.02
2023-03-24T11:27:59.469Z,24.18
2023-03-24T11:31:06.717Z,24.55
2023-03-24T11:34:25.517Z,24.63
2023-03-24T11:37:29.878Z,24.80
2023-03-24T11:40:32.180Z,24.77
2023-03-24T11:43:34.536Z,24.44
2023-03-24T11:46:39.720Z,24.76
2023-03-24T11:49:50.638Z,24.48
2023-03-24T11:52:58.148Z,24.51
2023-03-24T11:56:09.471Z,24.48
2023-03-24T11:59:27.888Z,24.35
2023-03-24T12:02:48.649Z,24.41
2023-03-24T12:06:15.225Z,24.58
2023-03-24T12:09:33.097Z,24.57
2023-03-24T12:12:43.282Z,24.52
2023-03-24T12:16:05.845Z,24.73
2023-03-24T12:19:20.348Z,24.54
2023-03-24T12:22:39.525Z,24.64
2023-03-24T12:25:49.727Z,24.72
2023-03-24T12:29:30.192Z,24.50
2023-03-24T12:32:51.404Z,24.54
2023-03-24T12:36:05.284Z,24.02
2023-03-24T12:39:18.995Z,24.27
2023-03-24T12:42:21.681Z,24.53
2023-03-24T12:45:26.326Z,24.61
2023-03-24T12:48:47.592Z,24.01
2023-03-24T12:52:23.738Z,24.12
2023-03-24T12:55:35.683Z,23.89
2023-03-24T12:58:51.139Z,23.90
2023-03-24T13:02:04.527Z,23.76
2023-03-24T13:05:09.456Z,23.62
2023-03-24T13:08:16.742Z,23.64
2023-03-24T13:11:32.764Z,23.48
2023-03-24T13:14:49.440Z,23.24
2023-03-24T13:17:57.845Z,23.23
2023-03-24T13:21:16.649Z,23.02
2023-03-24T13:24:19.272Z,23.22
2023-03-24T13:27:28.539Z,23.15
2023-03-24T13:30:40.616Z,23.37
2023-03-24T13:33:44.456Z,23.19
2023-03-24T13:36:53.324Z,23.08
2023-03-24T13:39:58.420Z,23.05
2023-03-24T13:43:39.195Z,23.28
2023-03-24T13:46:41.920Z,23.13
2023-03-24T13:50:05.782Z,22.94
2023-03-24T13:53:15.547Z,22.85
2023-03-24T13:56:26.202Z,22.97
2023-03-24T13:59:31.477Z,23.27
2023-03-24T14:02:42.901Z,23.33
2023-03-24T14:05:59.169Z,23.35
2023-03-24T14:09:05.998Z,23.37
2023-03-24T14:12:12.943Z,23.45
2023-03-24T14:15:20.958Z,23.33
2023-03-24T14:18:23.713Z,23.27
2023-03-24T14:21:30.822Z,23.21
2023-03-24T14:24:33.228Z,23.06
2023-03-24T14:27:38.308Z,23.08
2023-03-24T14:31:02.325Z,23.01
2023-03-24T14:34:16.931Z,22.81
2023-03-24T14:37:19.265Z,22.83
2023-03-24T14:40:38.165Z,22.81
2023-03-24T14:43:40.670Z,22.81
2023-03-24T14:46:44.933Z,22.68
2023-03-24T14:49:48.606Z,22.44
2023-03-24T14:52:55.917Z,22.39
2023-03-24T14:55:59.298Z,22.31
2023-03-24T14:59:08.979Z,22.34
2023-03-24T15:02:33.477Z,22.33
2023-03-24T15:05:40.220Z,22.11
2023-03-24T15:08:49.471Z,22.01
2023-03-24T15:11:52.218Z,22.04
2023-03-24T15:14:54.733Z,21.97
2023-03-24T15:17:58.161Z,21.90
2023-03-24T15:21:00.533Z,21.88
2023-03-24T15:24:21.286Z,21.97
2023-03-24T15:27:27.058Z,21.95
2023-03-24T15:30:29.511Z,21.98
2023-03-24T15:33:39.687Z,21.93
2023-03-24T15:36:44.987Z,21.85
2023-03-24T15:39:59.223Z,21.76
2023-03-24T15:43:18.762Z,21.69
2023-03-24T15:46:28.197Z,21.69
2023-03-24T15:49:32.595Z,21.65
2023-03-24T15:52:37.757Z,21.46
2023-03-24T15:55:43.151Z,21.47
2023-03-24T15:58:51.833Z,21.51
2023-03-24T16:01:54.252Z,21.46
2023-03-24T16:05:10.737Z,21.39
2023-03-24T16:08:41.096Z,21.34
2023-03-24T16:11:43.635Z,21.25
2023-03-24T16:14:46.279Z,21.20
2023-03-24T16:17:48.726Z,21.03
2023-03-24T16:20:52.558Z,21.00
2023-03-24T16:23:56.522Z,21.02
2023-03-24T16:26:58.791Z,20.96
2023-03-24T16:30:01.129Z,20.89
2023-03-24T16:33:07.381Z,20.83
2023-03-24T16:36:13.505Z,20.88
2023-03-24T16:39:20.904Z,20.77
2023-03-24T16:42:23.259Z,20.64
2023-03-24T16:45:25.851Z,20.71
2023-03-24T16:48:28.156Z,20.59
2023-03-24T16:51:30.529Z,20.60
2023-03-24T16:54:32.859Z,20.58
2023-03-24T16:57:36.584Z,20.46
2023-03-24T17:00:43.878Z,20.48
2023-03-24T17:03:49.908Z,20.43
2023-03-24T17:06:54.363Z,20.29
2023-03-24T17:09:56.813Z,20.22
2023-03-24T17:12:59.418Z,20.22
2023-03-24T17:16:01.774Z,20.29
2023-03-24T17:19:05.423Z,20.14
2023-03-24T17:22:07.783Z,20.11
2023-03-24T17:25:11.682Z,20.19
2023-03-24T17:28:17.838Z,20.15
2023-03-24T17:31:20.309Z,20.08
2023-03-24T17:34:22.688Z,20.03
2023-03-24T17:37:27.103Z,20.05
2023-03-24T17:40:29.495Z,20.00
2023-03-24T17:43:32.949Z,20.05
2023-03-24T17:46:35.372Z,20.06
2023-03-24T17:49:37.850Z,19.96
2023-03-24T17:52:43.806Z,19.87
2023-03-24T17:55:46.060Z,19.84
2023-03-24T17:58:48.851Z,19.80
2023-03-24T18:01:51.177Z,19.79
2023-03-24T18:04:54.528Z,19.69
2023-03-24T18:07:56.842Z,19.58
2023-03-24T18:11:10.465Z,19.47
2023-03-24T18:14:12.707Z,19.36
2023-03-24T18:17:15.227Z,19.26
2023-03-24T18:20:17.656Z,19.18
2023-03-24T18:23:19.949Z,19.28
2023-03-24T18:26:22.463Z,19.11
2023-03-24T18:29:25.107Z,19.03
2023-03-24T18:32:28.403Z,19.06
2023-03-24T18:35:30.996Z,19.05
2023-03-24T18:38:33.510Z,18.89
2023-03-24T18:41:37.479Z,18.85
2023-03-24T18:44:40.190Z,18.68
2023-03-24T18:47:42.770Z,18.61
2023-03-24T18:50:45.445Z,18.56
2023-03-24T18:53:48.970Z,18.57
2023-03-24T18:56:51.358Z,18.46
2023-03-24T18:59:53.681Z,18.47
2023-03-24T19:02:56.165Z,18.43
2023-03-24T19:06:01.862Z,18.45
2023-03-24T19:09:05.572Z,18.47
2023-03-24T19:12:08.006Z,18.36
2023-03-24T19:15:10.819Z,18.38
2023-03-24T19:18:13.878Z,18.45
2023-03-24T19:21:17.283Z,18.43
2023-03-24T19:24:19.728Z,18.49
2023-03-24T19:27:23.166Z,18.55
2023-03-24T19:30:26.171Z,18.52
2023-03-24T19:33:28.589Z,18.34
2023-03-24T19:36:30.878Z,18.35
2023-03-24T19:39:34.522Z,18.40
2023-03-24T19:42:39.937Z,18.33
2023-03-24T19:45:43.061Z,18.33
2023-03-24T19:48:45.750Z,18.28
2023-03-24T19:51:48.714Z,18.26
2023-03-24T19:54:52.560Z,18.36
2023-03-24T19:57:54.782Z,18.27
2023-03-24T20:00:57.183Z,18.29
2023-03-24T20:03:59.996Z,18.20
2023-03-24T20:07:03.290Z,18.16
2023-03-24T20:10:06.485Z,18.11
2023-03-24T20:13:09.263Z,18.06
2023-03-24T20:16:12.121Z,18.02
2023-03-24T20:19:14.524Z,17.87
2023-03-24T20:22:16.831Z,17.97
2023-03-24T20:25:19.840Z,18.01
2023-03-24T20:28:22.215Z,17.81
2023-03-24T20:31:24.926Z,17.73
2023-03-24T20:34:27.267Z,17.69
2023-03-24T20:37:30.671Z,17.71
2023-03-24T20:40:33.033Z,17.65
2023-03-24T20:43:39.359Z,17.73
2023-03-24T20:46:42.195Z,17.59
2023-03-24T20:49:45.954Z,17.63
2023-03-24T20:52:48.364Z,17.57
2023-03-24T20:56:06.761Z,17.42
2023-03-24T20:59:09.853Z,17.52
2023-03-24T21:02:12.257Z,17.64
2023-03-24T21:05:14.765Z,17.61
2023-03-24T21:08:17.576Z,17.75
2023-03-24T21:11:20.187Z,17.67
2023-03-24T21:14:22.619Z,17.77
2023-03-24T21:17:32.716Z,17.72
2023-03-24T21:20:35.225Z,17.76
2023-03-24T21:23:39.248Z,17.75
2023-03-24T21:26:41.658Z,17.78
2023-03-24T21:29:44.040Z,17.80
2023-03-24T21:32:51.040Z,17.82
2023-03-24T21:35:55.698Z,17.86
2023-03-24T21:38:58.573Z,17.80
2023-03-24T21:42:03.074Z,17.84
2023-03-24T21:45:05.912Z,17.82
2023-03-24T21:48:10.788Z,17.79
2023-03-24T21:51:14.882Z,17.86
2023-03-24T21:54:17.235Z,17.69
2023-03-24T21:57:20.184Z,17.73
2023-03-24T22:00:24.729Z,17.84
2023-03-24T22:03:28.033Z,17.65
2023-03-24T22:06:30.390Z,17.68
2023-03-24T22:09:34.273Z,17.75
2023-03-24T22:12:36.857Z,17.82
2023-03-24T22:15:39.191Z,17.79
2023-03-24T22:18:42.391Z,17.71
2023-03-24T22:21:49.605Z,17.72
2023-03-24T22:24:51.870Z,17.70
2023-03-24T22:27:56.153Z,17.66
2023-03-24T22:31:10.816Z,17.58
2023-03-24T22:34:13.903Z,17.64
2023-03-24T22:37:16.170Z,17.53
2023-03-24T22:40:18.597Z,17.33
2023-03-24T22:43:20.876Z,17.39
2023-03-24T22:46:24.478Z,17.31
2023-03-24T22:49:27.031Z,17.28
2023-03-24T22:52:29.312Z,17.25
2023-03-24T22:55:31.600Z,17.23
2023-03-24T22:58:35.817Z,17.22
2023-03-24T23:01:38.170Z,17.24
2023-03-24T23:04:41.803Z,17.12
2023-03-24T23:07:44.570Z,17.19
2023-03-24T23:10:47.314Z,17.21
2023-03-24T23:13:50.491Z,17.27
2023-03-24T23:16:54.990Z,17.35
2023-03-24T23:19:57.268Z,17.40
2023-03-24T23:23:00.464Z,17.36
2023-03-24T23:26:04.816Z,17.43
2023-03-24T23:29:07.116Z,17.40
2023-03-24T23:32:09.516Z,17.46
2023-03-24T23:35:11.946Z,17.27
2023-03-24T23:38:14.211Z,17.22
2023-03-24T23:41:17.206Z,17.23
2023-03-24T23:44:20.030Z,17.15
2023-03-24T23:47:22.468Z,17.09
2023-03-24T23:50:26.207Z,17.02
2023-03-24T23:53:29.454Z,17.02
2023-03-24T23:56:36.757Z,16.97
2023-03-24T23:59:39.538Z,16.92
